createdAt,value
2016-09-27T00:00:58.313Z,0
2016-09-27T00:01:58.304Z,0
2016-09-27T00:02:58.280Z,0
2016-09-27T00:03:58.282Z,0
2016-09-27T00:04:58.264Z,0
2016-09-27T00:05:58.265Z,0
2016-09-27T00:06:58.238Z,0
2016-09-27T00:07:58.255Z,0
2016-09-27T00:08:58.233Z,0
2016-09-27T00:09:58.221Z,0
2016-09-27T00:10:58.204Z,0
2016-09-27T00:11:58.199Z,0
2016-09-27T00:12:58.168Z,0
2016-09-27T00:13:58.161Z,0
2016-09-27T00:14:58.166Z,0
2016-09-27T00:15:58.128Z,0
2016-09-27T00:16:58.125Z,0
2016-09-27T00:17:58.137Z,0
2016-09-27T00:18:58.105Z,0
2016-09-27T00:19:58.091Z,0
2016-09-27T00:20:58.085Z,0
2016-09-27T00:21:58.046Z,0
2016-09-27T00:22:58.063Z,0
2016-09-27T00:23:58.024Z,0
2016-09-27T00:24:58.008Z,0
2016-09-27T00:25:58.041Z,0
2016-09-27T00:26:57.979Z,0
2016-09-27T00:27:57.990Z,0
2016-09-27T00:28:57.961Z,0
2016-09-27T00:29:57.953Z,0
2016-09-27T00:30:57.965Z,0
2016-09-27T00:31:57.945Z,0
2016-09-27T00:32:57.916Z,0
2016-09-27T00:33:57.910Z,0
2016-09-27T00:34:57.888Z,0
2016-09-27T00:35:57.897Z,0
2016-09-27T00:36:58.164Z,0
2016-09-27T00:37:57.874Z,0
2016-09-27T00:38:57.856Z,0
2016-09-27T00:39:58.146Z,0
2016-09-27T00:40:57.855Z,0
2016-09-27T00:41:57.810Z,0
2016-09-27T00:42:57.805Z,0
2016-09-27T00:43:57.785Z,0
2016-09-27T00:44:57.789Z,0
2016-09-27T00:45:57.779Z,0
2016-09-27T00:46:57.790Z,0
2016-09-27T00:47:57.748Z,0
2016-09-27T00:48:57.737Z,0
2016-09-27T00:49:57.749Z,0
2016-09-27T00:50:57.698Z,0
2016-09-27T00:51:57.710Z,0
2016-09-27T00:52:57.691Z,0
2016-09-27T00:53:57.681Z,0
2016-09-27T00:54:57.658Z,0
2016-09-27T00:55:57.648Z,0
2016-09-27T00:56:57.692Z,0
2016-09-27T00:57:57.631Z,0
2016-09-27T00:58:57.637Z,0
2016-09-27T00:59:57.618Z,0
2016-09-27T01:00:57.583Z,0
2016-09-27T01:01:57.619Z,0
2016-09-27T01:02:57.572Z,0
2016-09-27T01:03:57.558Z,0
2016-09-27T01:04:57.583Z,0
2016-09-27T01:05:57.531Z,0
2016-09-27T01:06:57.509Z,0
2016-09-27T01:07:57.520Z,0
2016-09-27T01:08:57.520Z,0
2016-09-27T01:09:57.495Z,0
2016-09-27T01:10:57.479Z,0
2016-09-27T01:11:57.445Z,0
2016-09-27T01:12:57.456Z,0
2016-09-27T01:13:57.443Z,0
2016-09-27T01:14:57.414Z,0
2016-09-27T01:15:57.450Z,0
2016-09-27T01:16:57.429Z,0
2016-09-27T01:17:57.384Z,0
2016-09-27T01:18:57.380Z,0
2016-09-27T01:19:57.380Z,0
2016-09-27T01:20:57.353Z,0
2016-09-27T01:21:57.364Z,0
2016-09-27T01:22:57.334Z,0
2016-09-27T01:23:57.343Z,0
2016-09-27T01:24:57.304Z,0
2016-09-27T01:25:57.313Z,0
2016-09-27T01:26:57.293Z,0
2016-09-27T01:27:57.267Z,0
2016-09-27T01:28:57.263Z,0
2016-09-27T01:29:57.243Z,0
2016-09-27T01:30:57.234Z,0
2016-09-27T01:31:57.226Z,0
2016-09-27T01:32:57.218Z,0
2016-09-27T01:33:57.210Z,0
2016-09-27T01:34:57.183Z,0
2016-09-27T01:35:57.164Z,0
2016-09-27T01:36:57.187Z,0
2016-09-27T01:37:57.165Z,0
2016-09-27T01:38:57.124Z,0
2016-09-27T01:39:57.122Z,0
2016-09-27T01:40:57.116Z,0
2016-09-27T01:41:57.109Z,0
2016-09-27T01:42:57.105Z,0
2016-09-27T01:43:57.088Z,0
2016-09-27T01:44:57.073Z,0
2016-09-27T01:45:57.067Z,0
2016-09-27T01:46:57.061Z,0
2016-09-27T01:47:57.051Z,0
2016-09-27T01:48:57.005Z,0
2016-09-27T01:49:57.035Z,0
2016-09-27T01:50:57.004Z,0
2016-09-27T01:51:56.984Z,0
2016-09-27T01:52:56.982Z,0
2016-09-27T01:53:57.259Z,0
2016-09-27T01:54:56.953Z,0
2016-09-27T01:55:56.919Z,0
2016-09-27T01:56:56.911Z,0
2016-09-27T01:57:56.897Z,0
2016-09-27T01:58:56.874Z,0
2016-09-27T01:59:56.893Z,0
2016-09-27T02:00:56.865Z,0
2016-09-27T02:01:56.851Z,0
2016-09-27T02:02:57.145Z,0
2016-09-27T02:03:56.842Z,0
2016-09-27T02:04:56.805Z,0
2016-09-27T02:05:56.831Z,0
2016-09-27T02:06:56.811Z,0
2016-09-27T02:07:56.768Z,0
2016-09-27T02:08:56.776Z,0
2016-09-27T02:09:56.784Z,0
2016-09-27T02:10:56.741Z,0
2016-09-27T02:11:56.734Z,0
2016-09-27T02:12:56.721Z,0
2016-09-27T02:13:56.716Z,0
2016-09-27T02:14:56.673Z,0
2016-09-27T02:15:56.687Z,0
2016-09-27T02:16:56.669Z,0
2016-09-27T02:17:56.645Z,0
2016-09-27T02:18:56.638Z,0
2016-09-27T02:19:56.644Z,0
2016-09-27T02:20:56.641Z,0
2016-09-27T02:21:56.621Z,0
2016-09-27T02:22:56.597Z,0
2016-09-27T02:23:56.598Z,0
2016-09-27T02:24:56.877Z,0
2016-09-27T02:25:56.589Z,0
2016-09-27T02:26:56.554Z,0
2016-09-27T02:27:56.531Z,0
2016-09-27T02:28:56.553Z,0
2016-09-27T02:29:56.525Z,0
2016-09-27T02:30:56.492Z,0
2016-09-27T02:31:56.494Z,0
2016-09-27T02:32:56.483Z,0
2016-09-27T02:33:56.493Z,0
2016-09-27T02:34:56.467Z,0
2016-09-27T02:35:56.438Z,0
2016-09-27T02:36:56.449Z,0
2016-09-27T02:37:56.424Z,0
2016-09-27T02:38:56.393Z,0
2016-09-27T02:39:56.400Z,0
2016-09-27T02:40:56.373Z,0
2016-09-27T02:41:56.372Z,0
2016-09-27T02:42:56.349Z,0
2016-09-27T02:43:56.362Z,0
2016-09-27T02:44:56.344Z,0
2016-09-27T02:45:56.359Z,0
2016-09-27T02:46:56.326Z,0
2016-09-27T02:47:56.302Z,0
2016-09-27T02:48:56.290Z,0
2016-09-27T02:49:56.285Z,0
2016-09-27T02:50:56.241Z,0
2016-09-27T02:51:56.243Z,0
2016-09-27T02:52:56.235Z,0
2016-09-27T02:53:56.218Z,0
2016-09-27T02:54:56.216Z,0
2016-09-27T02:55:56.176Z,0
2016-09-27T02:56:56.192Z,0
2016-09-27T02:57:56.169Z,0
2016-09-27T02:58:56.139Z,0
2016-09-27T02:59:56.178Z,0
2016-09-27T03:00:56.153Z,0
2016-09-27T03:01:56.132Z,0
2016-09-27T03:02:56.137Z,0
2016-09-27T03:03:56.125Z,0
2016-09-27T03:04:56.092Z,0
2016-09-27T03:05:56.091Z,0
2016-09-27T03:06:56.072Z,0
2016-09-27T03:07:56.043Z,0
2016-09-27T03:08:56.061Z,0
2016-09-27T03:09:56.047Z,0
2016-09-27T03:10:56.032Z,0
2016-09-27T03:11:56.015Z,0
2016-09-27T03:12:55.984Z,0
2016-09-27T03:13:56.008Z,0
2016-09-27T03:14:55.955Z,0
2016-09-27T03:15:55.963Z,0
2016-09-27T03:16:55.950Z,0
2016-09-27T03:17:55.969Z,0
2016-09-27T03:18:55.934Z,0
2016-09-27T03:19:55.909Z,0
2016-09-27T03:20:55.919Z,0
2016-09-27T03:21:55.916Z,0
2016-09-27T03:22:55.891Z,0
2016-09-27T03:23:55.882Z,0
2016-09-27T03:24:55.897Z,0
2016-09-27T03:25:55.842Z,0
2016-09-27T03:26:55.861Z,0
2016-09-27T03:27:55.849Z,0
2016-09-27T03:28:55.819Z,0
2016-09-27T03:29:55.804Z,0
2016-09-27T03:30:55.822Z,0
2016-09-27T03:31:55.797Z,0
2016-09-27T03:32:55.814Z,0
2016-09-27T03:33:55.772Z,0
2016-09-27T03:34:55.902Z,0
2016-09-27T03:35:55.748Z,0
2016-09-27T03:36:55.736Z,0
2016-09-27T03:37:55.810Z,0
2016-09-27T03:38:55.722Z,0
2016-09-27T03:39:55.715Z,0
2016-09-27T03:40:55.697Z,0
2016-09-27T03:41:55.673Z,0
2016-09-27T03:42:55.666Z,0
2016-09-27T03:43:55.651Z,0
2016-09-27T03:44:55.654Z,0
2016-09-27T03:45:55.635Z,0
2016-09-27T03:46:55.627Z,0
2016-09-27T03:47:55.612Z,0
2016-09-27T03:48:55.604Z,0
2016-09-27T03:49:55.691Z,0
2016-09-27T03:50:55.588Z,0
2016-09-27T03:51:55.569Z,0
2016-09-27T03:52:55.556Z,0
2016-09-27T03:53:55.555Z,0
2016-09-27T03:54:55.521Z,0
2016-09-27T03:55:55.527Z,0
2016-09-27T03:56:55.532Z,0
2016-09-27T03:57:55.512Z,0
2016-09-27T03:58:55.494Z,0
2016-09-27T03:59:55.471Z,0
2016-09-27T04:00:55.472Z,0
2016-09-27T04:01:55.456Z,0
2016-09-27T04:02:55.449Z,0
2016-09-27T04:03:55.465Z,0
2016-09-27T04:04:55.456Z,0
2016-09-27T04:05:55.432Z,0
2016-09-27T04:06:55.405Z,0
2016-09-27T04:07:55.423Z,0
2016-09-27T04:08:55.391Z,0
2016-09-27T04:09:55.387Z,0
2016-09-27T04:10:55.361Z,0
2016-09-27T04:11:55.349Z,0
2016-09-27T04:12:55.338Z,0
2016-09-27T04:13:55.327Z,0
2016-09-27T04:14:55.321Z,0
2016-09-27T04:15:55.317Z,0
2016-09-27T04:16:55.294Z,0
2016-09-27T04:17:55.307Z,0
2016-09-27T04:18:55.279Z,0
2016-09-27T04:19:55.258Z,0
2016-09-27T04:20:55.249Z,0
2016-09-27T04:21:55.238Z,0
2016-09-27T04:22:55.222Z,0
2016-09-27T04:23:55.206Z,0
2016-09-27T04:24:55.234Z,0
2016-09-27T04:25:55.173Z,0
2016-09-27T04:26:55.189Z,0
2016-09-27T04:27:55.171Z,0
2016-09-27T04:28:55.154Z,0
2016-09-27T04:29:55.155Z,0
2016-09-27T04:30:55.125Z,0
2016-09-27T04:31:55.122Z,0
2016-09-27T04:32:55.108Z,0
2016-09-27T04:33:55.103Z,0
2016-09-27T04:34:55.110Z,0
2016-09-27T04:35:55.090Z,4
2016-09-27T04:36:55.056Z,4
2016-09-27T04:37:55.068Z,0
2016-09-27T04:38:55.048Z,4
2016-09-27T04:39:55.048Z,4
2016-09-27T04:40:55.012Z,4
2016-09-27T04:41:55.012Z,8
2016-09-27T04:42:54.992Z,8
2016-09-27T04:43:54.989Z,8
2016-09-27T04:44:54.997Z,8
2016-09-27T04:45:54.956Z,12
2016-09-27T04:46:54.961Z,12
2016-09-27T04:47:54.938Z,20
2016-09-27T04:48:54.963Z,24
2016-09-27T04:49:54.928Z,28
2016-09-27T04:50:54.918Z,32
2016-09-27T04:51:54.894Z,36
2016-09-27T04:52:54.877Z,44
2016-09-27T04:53:54.892Z,52
2016-09-27T04:54:54.886Z,60
2016-09-27T04:55:54.847Z,68
2016-09-27T04:56:54.853Z,80
2016-09-27T04:57:54.837Z,92
2016-09-27T04:58:54.838Z,104
2016-09-27T04:59:54.836Z,120
2016-09-27T05:00:54.774Z,132
2016-09-27T05:01:54.796Z,152
2016-09-27T05:02:54.805Z,172
2016-09-27T05:03:54.784Z,192
2016-09-27T05:04:54.761Z,216
2016-09-27T05:05:54.742Z,244
2016-09-27T05:06:54.724Z,272
2016-09-27T05:07:54.741Z,300
2016-09-27T05:08:54.715Z,340
2016-09-27T05:09:54.714Z,380
2016-09-27T05:10:54.891Z,440
2016-09-27T05:11:54.674Z,492
2016-09-27T05:12:54.657Z,564
2016-09-27T05:13:54.679Z,640
2016-09-27T05:14:54.643Z,724
2016-09-27T05:15:54.848Z,840
2016-09-27T05:16:54.803Z,928
2016-09-27T05:17:54.615Z,1020
2016-09-27T05:18:54.614Z,1092
2016-09-27T05:19:54.589Z,1192
2016-09-27T05:20:54.593Z,1340
2016-09-27T05:21:54.562Z,1488
2016-09-27T05:22:54.543Z,1628
2016-09-27T05:23:54.545Z,1868
2016-09-27T05:24:54.554Z,2080
2016-09-27T05:25:54.523Z,2312
2016-09-27T05:26:54.513Z,2580
2016-09-27T05:27:54.485Z,2864
2016-09-27T05:28:54.515Z,3236
2016-09-27T05:29:54.503Z,3580
2016-09-27T05:30:54.458Z,3988
2016-09-27T05:31:54.470Z,4384
2016-09-27T05:32:54.458Z,4764
2016-09-27T05:33:54.458Z,5148
2016-09-27T05:34:54.455Z,5584
2016-09-27T05:35:54.424Z,5976
2016-09-27T05:36:54.398Z,6360
2016-09-27T05:37:54.389Z,6788
2016-09-27T05:38:54.415Z,7184
2016-09-27T05:39:54.404Z,7580
2016-09-27T05:40:54.360Z,7924
2016-09-27T05:41:54.359Z,8300
2016-09-27T05:42:54.368Z,8656
2016-09-27T05:43:54.351Z,9060
2016-09-27T05:44:54.336Z,9512
2016-09-27T05:45:54.533Z,9956
2016-09-27T05:46:54.292Z,10452
2016-09-27T05:47:54.495Z,10916
2016-09-27T05:48:54.492Z,11220
2016-09-27T05:49:54.286Z,11364
2016-09-27T05:50:54.281Z,11416
2016-09-27T05:51:54.582Z,11620
2016-09-27T05:52:54.249Z,11836
2016-09-27T05:53:54.244Z,11924
2016-09-27T05:54:54.220Z,12000
2016-09-27T05:55:54.222Z,11760
2016-09-27T05:56:54.231Z,11120
2016-09-27T05:57:54.172Z,10108
2016-09-27T05:58:54.200Z,9032
2016-09-27T05:59:54.163Z,8228
2016-09-27T06:00:54.457Z,7820
2016-09-27T06:01:54.180Z,7384
2016-09-27T06:02:54.130Z,7040
2016-09-27T06:03:54.120Z,6928
2016-09-27T06:04:54.098Z,7152
2016-09-27T06:05:54.084Z,7524
2016-09-27T06:06:54.118Z,7732
2016-09-27T06:07:54.081Z,8088
2016-09-27T06:08:54.074Z,8444
2016-09-27T06:09:54.065Z,8604
2016-09-27T06:10:54.077Z,8680
2016-09-27T06:11:54.035Z,9020
2016-09-27T06:12:54.040Z,9556
2016-09-27T06:13:54.031Z,10376
2016-09-27T06:14:54.016Z,10836
2016-09-27T06:15:53.998Z,10984
2016-09-27T06:16:53.982Z,10692
2016-09-27T06:17:53.982Z,9752
2016-09-27T06:18:53.990Z,8604
2016-09-27T06:19:54.138Z,7860
2016-09-27T06:20:53.947Z,7536
2016-09-27T06:21:53.935Z,6208
2016-09-27T06:25:17.086Z,3612
2016-09-27T06:26:17.076Z,4084
2016-09-27T06:27:17.045Z,4788
2016-09-27T06:28:17.037Z,4628
2016-09-27T06:29:17.033Z,4196
2016-09-27T06:30:17.030Z,3968
2016-09-27T06:31:16.978Z,3712
2016-09-27T06:32:17.015Z,3496
2016-09-27T06:33:16.995Z,3432
2016-09-27T06:34:16.991Z,3464
2016-09-27T06:35:16.954Z,3576
2016-09-27T06:36:16.948Z,3632
2016-09-27T06:37:16.920Z,3656
2016-09-27T06:38:16.924Z,3856
2016-09-27T06:39:16.883Z,4080
2016-09-27T06:40:16.882Z,4320
2016-09-27T06:41:16.880Z,4424
2016-09-27T06:42:16.875Z,4648
2016-09-27T06:43:16.851Z,5120
2016-09-27T06:44:16.831Z,6084
2016-09-27T06:45:16.835Z,7184
2016-09-27T06:46:16.807Z,7616
2016-09-27T06:47:16.769Z,7768
2016-09-27T06:48:16.804Z,7832
2016-09-27T06:49:16.760Z,8232
2016-09-27T06:50:17.066Z,7164
2016-09-27T06:51:16.786Z,6852
2016-09-27T06:52:16.756Z,7124
2016-09-27T06:53:16.725Z,8172
2016-09-27T06:54:16.684Z,8208
2016-09-27T06:55:16.702Z,7412
2016-09-27T06:56:16.692Z,6968
2016-09-27T06:57:16.651Z,6872
2016-09-27T06:58:16.665Z,7348
2016-09-27T06:59:16.631Z,8216
2016-09-27T07:00:16.601Z,9588
2016-09-27T07:01:16.610Z,11316
2016-09-27T07:02:16.592Z,12640
2016-09-27T07:03:16.595Z,13756
2016-09-27T07:04:16.555Z,14908
2016-09-27T07:05:16.572Z,15472
2016-09-27T07:06:16.544Z,15484
2016-09-27T07:07:16.545Z,15044
2016-09-27T07:08:16.530Z,14312
2016-09-27T07:09:16.518Z,13716
2016-09-27T07:10:16.506Z,13208
2016-09-27T07:11:16.471Z,13948
2016-09-27T07:12:16.447Z,14896
2016-09-27T07:13:16.478Z,14996
2016-09-27T07:14:16.429Z,14412
2016-09-27T07:15:16.438Z,13576
2016-09-27T07:16:16.423Z,13292
2016-09-27T07:17:16.426Z,13056
2016-09-27T07:18:16.386Z,13520
2016-09-27T07:19:16.367Z,14760
2016-09-27T07:20:16.366Z,16424
2016-09-27T07:21:16.363Z,18528
2016-09-27T07:22:16.338Z,21504
2016-09-27T07:23:16.326Z,23648
2016-09-27T07:24:16.313Z,23232
2016-09-27T07:25:16.301Z,24256
2016-09-27T07:26:16.291Z,24064
2016-09-27T07:27:16.285Z,22976
2016-09-27T07:28:16.251Z,21664
2016-09-27T07:29:16.271Z,19648
2016-09-27T07:30:16.218Z,18272
2016-09-27T07:31:16.220Z,16632
2016-09-27T07:32:16.215Z,16060
2016-09-27T07:33:16.197Z,15584
2016-09-27T07:34:16.196Z,15724
2016-09-27T07:35:16.193Z,16376
2016-09-27T07:36:16.124Z,17760
2016-09-27T07:37:16.144Z,19392
2016-09-27T07:38:16.124Z,20160
2016-09-27T07:39:16.108Z,20704
2016-09-27T07:40:16.121Z,20960
2016-09-27T07:41:16.078Z,21920
2016-09-27T07:42:16.085Z,23232
2016-09-27T07:43:16.067Z,24704
2016-09-27T07:44:16.060Z,25888
2016-09-27T07:45:16.048Z,26272
2016-09-27T07:46:16.031Z,26656
2016-09-27T07:47:16.002Z,27040
2016-09-27T07:48:16.033Z,27136
2016-09-27T07:49:15.976Z,26720
2016-09-27T07:50:15.992Z,27072
2016-09-27T07:51:15.952Z,27808
2016-09-27T07:52:15.968Z,27296
2016-09-27T07:53:15.947Z,27040
2016-09-27T07:54:15.922Z,26784
2016-09-27T07:55:15.928Z,30560
2016-09-27T07:56:15.900Z,30304
2016-09-27T07:57:16.216Z,28320
2016-09-27T07:58:15.884Z,26464
2016-09-27T07:59:15.915Z,26464
2016-09-27T08:00:15.900Z,26336
2016-09-27T08:01:15.871Z,25856
2016-09-27T08:02:15.833Z,26048
2016-09-27T08:03:15.830Z,25696
2016-09-27T08:04:15.850Z,24992
2016-09-27T08:05:15.833Z,25088
2016-09-27T08:06:15.813Z,28928
2016-09-27T08:07:15.792Z,32064
2016-09-27T08:08:15.795Z,33120
2016-09-27T08:09:15.775Z,30496
2016-09-27T08:10:15.778Z,27872
2016-09-27T08:11:15.770Z,25440
2016-09-27T08:12:15.760Z,24640
2016-09-27T08:13:15.745Z,25120
2016-09-27T08:14:15.737Z,23904
2016-09-27T08:15:15.733Z,22592
2016-09-27T08:16:15.707Z,23328
2016-09-27T08:17:15.704Z,21760
2016-09-27T08:18:15.670Z,21632
2016-09-27T08:19:15.683Z,23552
2016-09-27T08:20:15.673Z,31648
2016-09-27T08:21:15.649Z,40160
2016-09-27T08:22:15.745Z,44704
2016-09-27T08:23:15.633Z,45920
2016-09-27T08:24:15.617Z,43296
2016-09-27T08:25:15.603Z,41504
2016-09-27T08:26:15.593Z,61504
2016-09-27T08:27:15.593Z,41792
2016-09-27T08:28:15.556Z,34368
2016-09-27T08:29:15.560Z,29440
2016-09-27T08:30:15.571Z,29664
2016-09-27T08:31:15.540Z,30592
2016-09-27T08:32:15.538Z,25472
2016-09-27T08:33:15.517Z,24192
2016-09-27T08:34:15.537Z,26016
2016-09-27T08:35:15.482Z,30688
2016-09-27T08:36:15.483Z,29824
2016-09-27T08:37:15.484Z,31584
2016-09-27T08:38:15.478Z,33152
2016-09-27T08:39:15.447Z,28864
2016-09-27T08:40:15.444Z,34368
2016-09-27T08:41:15.420Z,34560
2016-09-27T08:42:15.402Z,35072
2016-09-27T08:43:15.417Z,36128
2016-09-27T08:44:15.396Z,36352
2016-09-27T08:45:15.393Z,35264
2016-09-27T08:46:15.370Z,35072
2016-09-27T08:47:15.354Z,36416
2016-09-27T08:48:15.352Z,36256
2016-09-27T08:49:15.363Z,36800
2016-09-27T08:50:15.337Z,36544
2016-09-27T08:51:15.304Z,36160
2016-09-27T08:52:15.284Z,36608
2016-09-27T08:53:15.301Z,36128
2016-09-27T08:54:15.282Z,36000
2016-09-27T08:55:15.276Z,36096
2016-09-27T08:56:15.261Z,35040
2016-09-27T08:57:15.254Z,34208
2016-09-27T08:58:15.218Z,32608
2016-09-27T08:59:15.213Z,29856
2016-09-27T09:00:15.212Z,30208
2016-09-27T09:01:15.198Z,32512
2016-09-27T09:02:15.175Z,33152
2016-09-27T09:03:15.170Z,31040
2016-09-27T09:04:15.165Z,28672
2016-09-27T09:05:15.145Z,31072
2016-09-27T09:06:15.154Z,34400
2016-09-27T09:07:15.136Z,36000
2016-09-27T09:08:15.108Z,36832
2016-09-27T09:09:15.119Z,36224
2016-09-27T09:10:15.071Z,37568
2016-09-27T09:11:15.096Z,41152
2016-09-27T09:12:15.093Z,41792
2016-09-27T09:13:15.056Z,43200
2016-09-27T09:14:15.069Z,44320
2016-09-27T09:15:15.045Z,44512
2016-09-27T09:16:15.320Z,44608
2016-09-27T09:17:15.038Z,43936
2016-09-27T09:18:15.016Z,41696
2016-09-27T09:19:15.000Z,40320
2016-09-27T09:20:14.968Z,39456
2016-09-27T09:21:14.983Z,38784
2016-09-27T09:22:14.990Z,38784
2016-09-27T09:23:14.952Z,39168
2016-09-27T09:24:14.955Z,39936
2016-09-27T09:25:14.947Z,40608
2016-09-27T09:26:14.908Z,40992
2016-09-27T09:27:14.939Z,40768
2016-09-27T09:28:14.921Z,38560
2016-09-27T09:29:14.891Z,38272
2016-09-27T09:30:14.880Z,44928
2016-09-27T09:31:14.886Z,44416
2016-09-27T09:32:14.853Z,42464
2016-09-27T09:33:14.851Z,42496
2016-09-27T09:34:14.837Z,42048
2016-09-27T09:35:14.832Z,39840
2016-09-27T09:36:14.832Z,40256
2016-09-27T09:37:14.791Z,43136
2016-09-27T09:38:14.793Z,47488
2016-09-27T09:39:14.782Z,58624
2016-09-27T09:40:14.780Z,45312
2016-09-27T09:41:14.769Z,46208
2016-09-27T09:42:14.769Z,45472
2016-09-27T09:43:14.749Z,47584
2016-09-27T09:44:14.724Z,45696
2016-09-27T09:45:15.032Z,47808
2016-09-27T09:46:14.716Z,53664
2016-09-27T09:47:14.716Z,49632
2016-09-27T09:48:14.706Z,48832
2016-09-27T09:49:14.695Z,65344
2016-09-27T09:50:14.678Z,116608
2016-09-27T09:51:14.682Z,88512
2016-09-27T09:52:14.661Z,82976
2016-09-27T09:53:14.654Z,107616
2016-09-27T09:54:14.625Z,70336
2016-09-27T09:55:14.626Z,81888
2016-09-27T09:56:14.605Z,61312
2016-09-27T09:57:14.590Z,62496
2016-09-27T09:58:14.597Z,67424
2016-09-27T09:59:14.589Z,72672
2016-09-27T10:00:14.573Z,81920
2016-09-27T10:01:14.575Z,59872
2016-09-27T10:02:14.526Z,78944
2016-09-27T10:03:14.563Z,74048
2016-09-27T10:04:14.576Z,70752
2016-09-27T10:05:14.529Z,87456
2016-09-27T10:06:14.520Z,45472
2016-09-27T10:07:14.499Z,56544
2016-09-27T10:08:14.501Z,98240
2016-09-27T10:09:14.571Z,86848
2016-09-27T10:10:14.470Z,69568
2016-09-27T10:11:14.466Z,62176
2016-09-27T10:12:14.449Z,63328
2016-09-27T10:13:14.441Z,82592
2016-09-27T10:14:14.439Z,61920
2016-09-27T10:15:14.431Z,105888
2016-09-27T10:16:14.421Z,97120
2016-09-27T10:17:14.419Z,83392
2016-09-27T10:18:14.406Z,88512
2016-09-27T10:19:14.379Z,68128
2016-09-27T10:20:14.409Z,80416
2016-09-27T10:21:14.364Z,54336
2016-09-27T10:22:14.350Z,67456
2016-09-27T10:23:14.322Z,61280
2016-09-27T10:24:14.354Z,59680
2016-09-27T10:25:14.372Z,61248
2016-09-27T10:26:14.333Z,75456
2016-09-27T10:27:14.302Z,33312
2016-09-27T10:28:14.317Z,40384
2016-09-27T10:29:14.304Z,34784
2016-09-27T10:30:14.295Z,66016
2016-09-27T10:31:14.287Z,74144
2016-09-27T10:32:14.282Z,80352
2016-09-27T10:33:14.246Z,70368
2016-09-27T10:34:14.244Z,77440
2016-09-27T10:35:14.242Z,93504
2016-09-27T10:36:14.224Z,94816
2016-09-27T10:37:14.233Z,35520
2016-09-27T10:38:14.214Z,31488
2016-09-27T10:39:14.200Z,29344
2016-09-27T10:40:14.189Z,31104
2016-09-27T10:41:14.165Z,31328
2016-09-27T10:42:14.159Z,35008
2016-09-27T10:43:14.161Z,32704
2016-09-27T10:44:14.169Z,30080
2016-09-27T10:45:14.162Z,30656
2016-09-27T10:46:14.139Z,29952
2016-09-27T10:47:14.117Z,29184
2016-09-27T10:48:14.121Z,26560
2016-09-27T10:49:14.085Z,25376
2016-09-27T10:50:14.165Z,24704
2016-09-27T10:51:14.072Z,23136
2016-09-27T10:52:14.087Z,20384
2016-09-27T10:53:14.074Z,14728
2016-09-27T10:54:14.026Z,9568
2016-09-27T10:55:14.030Z,12188
2016-09-27T10:56:14.015Z,8776
2016-09-27T10:57:14.014Z,10560
2016-09-27T10:58:14.206Z,13880
2016-09-27T10:59:13.978Z,13948
2016-09-27T11:00:13.991Z,18336
2016-09-27T11:01:13.949Z,19712
2016-09-27T11:02:14.179Z,18880
2016-09-27T11:03:13.970Z,15396
2016-09-27T11:04:13.957Z,14168
2016-09-27T11:05:13.922Z,14276
2016-09-27T11:06:13.909Z,14560
2016-09-27T11:07:13.908Z,11784
2016-09-27T11:08:13.891Z,9440
2016-09-27T11:09:13.902Z,11816
2016-09-27T11:10:13.848Z,9404
2016-09-27T11:11:13.867Z,13044
2016-09-27T11:12:13.858Z,15696
2016-09-27T11:13:13.839Z,12448
2016-09-27T11:14:13.824Z,12176
2016-09-27T11:15:13.808Z,12840
2016-09-27T11:16:13.774Z,12688
2016-09-27T11:17:13.768Z,12028
2016-09-27T11:18:13.770Z,12432
2016-09-27T11:19:13.745Z,13880
2016-09-27T11:20:13.741Z,18464
2016-09-27T11:21:13.732Z,17440
2016-09-27T11:22:13.755Z,18144
2016-09-27T11:23:13.726Z,16680
2016-09-27T11:24:13.699Z,14228
2016-09-27T11:25:13.694Z,16308
2016-09-27T11:26:13.679Z,17984
2016-09-27T11:27:13.695Z,20608
2016-09-27T11:28:13.646Z,24512
2016-09-27T11:29:13.930Z,26048
2016-09-27T11:30:13.639Z,26400
2016-09-27T11:31:13.623Z,24192
2016-09-27T11:32:13.605Z,21920
2016-09-27T11:33:13.839Z,18944
2016-09-27T11:34:13.586Z,18432
2016-09-27T11:35:13.599Z,25216
2016-09-27T11:36:13.579Z,29024
2016-09-27T11:37:13.564Z,31200
2016-09-27T11:38:13.533Z,30848
2016-09-27T11:39:13.543Z,29696
2016-09-27T11:40:13.553Z,30208
2016-09-27T11:41:13.718Z,31616
2016-09-27T11:42:13.503Z,31712
2016-09-27T11:43:13.501Z,33856
2016-09-27T11:44:13.472Z,34304
2016-09-27T11:45:13.459Z,33184
2016-09-27T11:46:13.450Z,33888
2016-09-27T11:47:13.429Z,35040
2016-09-27T11:48:13.450Z,32352
2016-09-27T11:49:13.430Z,28000
2016-09-27T11:50:13.419Z,24928
2016-09-27T11:51:13.388Z,24864
2016-09-27T11:52:13.373Z,31136
2016-09-27T11:53:13.369Z,37984
2016-09-27T11:54:13.362Z,42976
2016-09-27T11:55:13.344Z,48832
2016-09-27T11:56:13.329Z,48448
2016-09-27T11:57:13.350Z,48224
2016-09-27T11:58:13.324Z,41728
2016-09-27T11:59:13.311Z,45440
2016-09-27T12:00:13.291Z,45440
2016-09-27T12:01:13.281Z,40160
2016-09-27T12:02:13.297Z,37856
2016-09-27T12:03:13.272Z,38240
2016-09-27T12:04:13.463Z,38112
2016-09-27T12:05:13.469Z,36352
2016-09-27T12:06:13.255Z,33984
2016-09-27T12:07:13.214Z,32800
2016-09-27T12:08:13.238Z,34368
2016-09-27T12:09:13.204Z,35296
2016-09-27T12:10:13.192Z,38912
2016-09-27T12:11:13.195Z,40640
2016-09-27T12:12:13.391Z,42816
2016-09-27T12:13:13.158Z,48416
2016-09-27T12:14:13.140Z,79296
2016-09-27T12:15:13.150Z,95136
2016-09-27T12:16:13.105Z,36576
2016-09-27T12:17:13.129Z,30528
2016-09-27T12:18:13.093Z,28768
2016-09-27T12:19:13.089Z,27392
2016-09-27T12:20:13.091Z,25536
2016-09-27T12:21:13.073Z,23680
2016-09-27T12:22:13.078Z,21984
2016-09-27T12:23:13.061Z,21280
2016-09-27T12:24:13.057Z,23040
2016-09-27T12:25:13.026Z,24800
2016-09-27T12:26:13.009Z,27168
2016-09-27T12:27:13.031Z,28896
2016-09-27T12:28:13.012Z,30368
2016-09-27T12:29:12.988Z,29888
2016-09-27T12:30:12.974Z,30208
2016-09-27T12:31:12.975Z,31584
2016-09-27T12:32:12.957Z,30656
2016-09-27T12:33:12.954Z,31968
2016-09-27T12:34:12.915Z,29760
2016-09-27T12:35:12.944Z,29696
2016-09-27T12:36:13.147Z,32960
2016-09-27T12:37:13.311Z,32832
2016-09-27T12:38:12.907Z,31680
2016-09-27T12:39:12.902Z,30208
2016-09-27T12:40:12.885Z,46080
2016-09-27T12:41:12.861Z,38240
2016-09-27T12:42:12.830Z,37888
2016-09-27T12:43:12.837Z,62400
2016-09-27T12:44:12.822Z,42752
2016-09-27T12:45:12.841Z,39168
2016-09-27T12:46:12.812Z,38112
2016-09-27T12:47:12.794Z,36288
2016-09-27T12:48:12.772Z,37632
2016-09-27T12:49:12.788Z,40864
2016-09-27T12:50:12.761Z,79616
2016-09-27T12:51:12.746Z,42656
2016-09-27T12:52:12.757Z,40896
2016-09-27T12:53:12.745Z,41440
2016-09-27T12:54:12.701Z,38080
2016-09-27T12:55:12.700Z,39360
2016-09-27T12:56:12.710Z,42944
2016-09-27T12:57:13.006Z,49600
2016-09-27T12:58:12.696Z,45440
2016-09-27T12:59:12.693Z,42816
2016-09-27T13:00:12.652Z,40992
2016-09-27T13:01:12.660Z,39008
2016-09-27T13:02:12.673Z,39488
2016-09-27T13:03:12.647Z,39200
2016-09-27T13:04:12.626Z,39392
2016-09-27T13:05:12.619Z,39232
2016-09-27T13:06:12.822Z,40160
2016-09-27T13:07:12.608Z,37984
2016-09-27T13:08:12.782Z,32864
2016-09-27T13:09:12.582Z,43648
2016-09-27T13:10:12.579Z,43712
2016-09-27T13:11:12.538Z,38176
2016-09-27T13:12:12.564Z,35360
2016-09-27T13:13:12.543Z,34112
2016-09-27T13:14:12.539Z,34624
2016-09-27T13:15:12.518Z,40064
2016-09-27T13:16:12.519Z,51584
2016-09-27T13:17:12.517Z,55936
2016-09-27T13:18:12.490Z,47456
2016-09-27T13:19:12.482Z,42720
2016-09-27T13:20:12.477Z,36160
2016-09-27T13:21:12.445Z,63264
2016-09-27T13:22:12.443Z,77312
2016-09-27T13:23:12.433Z,43712
2016-09-27T13:24:12.459Z,42752
2016-09-27T13:25:12.448Z,40704
2016-09-27T13:26:12.438Z,39296
2016-09-27T13:27:12.398Z,36320
2016-09-27T13:28:12.384Z,35392
2016-09-27T13:29:12.394Z,34464
2016-09-27T13:30:12.365Z,52448
2016-09-27T13:31:12.376Z,60128
2016-09-27T13:32:12.332Z,44672
2016-09-27T13:33:12.346Z,48096
2016-09-27T13:34:12.316Z,46176
2016-09-27T13:35:12.308Z,31968
2016-09-27T13:36:12.601Z,32000
2016-09-27T13:37:12.316Z,51392